Time;durP1;ratioP1;P1;durP2;ratioP2;P2;SDS_P1;SDS_P2;PMS_P1;PMS_P2;Temp;Humidity;BMP_temperature;BMP_pressure;BME280_temperature;BME280_humidity;BME280_pressure;Samples;Min_cycle;Max_cycle;Signal;HPM_P1;HPM_P2
2023/10/05 00:02:10;;;;;;;16.70;13.10;;;;;;;8.09;100.00;99838.52;109748;1250;64497;-70
2023/10/05 00:04:41;;;;;;;15.30;12.90;;;;;;;8.09;100.00;99834.08;109825;1249;59254;-69
2023/10/05 00:07:10;;;;;;;18.10;13.70;;;;;;;8.09;100.00;99834.60;109497;1250;64137;-69
2023/10/05 00:09:40;;;;;;;16.90;13.10;;;;;;;8.10;100.00;99830.16;109525;1251;58966;-69
2023/10/05 00:12:08;;;;;;;14.80;12.90;;;;;;;8.10;100.00;99829.45;109590;1249;59151;-69
2023/10/05 00:14:36;;;;;;;14.80;13.00;;;;;;;8.10;100.00;99829.10;109820;1249;66070;-69
2023/10/05 00:17:06;;;;;;;14.40;12.40;;;;;;;8.09;100.00;99827.89;109490;1249;60201;-69
2023/10/05 00:19:37;;;;;;;13.60;12.00;;;;;;;8.07;100.00;99823.88;109800;1249;62626;-70
2023/10/05 00:22:04;;;;;;;16.20;12.10;;;;;;;8.04;100.00;99820.50;109392;1254;59331;-69
2023/10/05 00:27:09;;;;;;;17.30;13.70;;;;;;;7.99;100.00;99816.10;109088;1254;66223;-70
2023/10/05 00:29:48;;;;;;;14.30;12.60;;;;;;;7.98;100.00;99817.02;109310;1254;59228;-69
2023/10/05 00:32:15;;;;;;;17.40;14.20;;;;;;;7.96;100.00;99813.57;109341;1253;62582;-70
2023/10/05 00:34:44;;;;;;;18.00;14.70;;;;;;;7.95;100.00;99811.30;109375;1253;59088;-69
2023/10/05 00:37:11;;;;;;;18.50;13.80;;;;;;;7.94;100.00;99805.69;109152;1254;58995;-69
2023/10/05 00:39:38;;;;;;;15.20;13.50;;;;;;;7.95;100.00;99807.95;109083;1253;64742;-70
2023/10/05 00:42:11;;;;;;;15.30;13.70;;;;;;;7.95;100.00;99810.80;109317;1254;68938;-69
2023/10/05 00:44:40;;;;;;;17.00;14.00;;;;;;;7.94;100.00;99810.33;109386;1254;62888;-69
2023/10/05 00:47:11;;;;;;;19.00;14.20;;;;;;;7.92;100.00;99807.02;109172;1253;59032;-69
2023/10/05 00:49:57;;;;;;;17.10;14.80;;;;;;;7.90;100.00;99807.42;109194;1253;59275;-69
2023/10/05 00:52:24;;;;;;;16.40;14.60;;;;;;;7.90;100.00;99808.36;109237;1250;65783;-69
2023/10/05 00:55:11;;;;;;;19.30;17.40;;;;;;;7.88;100.00;99801.02;109535;1250;59135;-69
2023/10/05 00:57:39;;;;;;;19.60;15.90;;;;;;;7.88;100.00;99801.02;109730;1249;63952;-69
2023/10/05 01:00:26;;;;;;;17.70;15.80;;;;;;;7.87;100.00;99801.40;109745;1250;60090;-69
2023/10/05 01:03:22;;;;;;;17.40;14.80;;;;;;;7.87;100.00;99797.70;109555;1249;58944;-69
2023/10/05 01:06:10;;;;;;;19.80;15.70;;;;;;;7.85;100.00;99799.54;109791;1250;66480;-69
2023/10/05 01:08:49;;;;;;;18.50;16.60;;;;;;;7.84;100.00;99794.97;109428;1250;60052;-69
2023/10/05 01:11:19;;;;;;;16.80;14.80;;;;;;;7.82;100.00;99793.28;109807;1250;63900;-69
2023/10/05 01:13:48;;;;;;;17.10;14.80;;;;;;;7.82;100.00;99792.04;109731;1249;58958;-69
2023/10/05 01:16:19;;;;;;;18.30;13.80;;;;;;;7.83;100.00;99791.48;109719;1250;59085;-69
2023/10/05 01:18:45;;;;;;;15.70;14.00;;;;;;;7.84;100.00;99787.36;109578;1250;66383;-69
2023/10/05 01:21:12;;;;;;;18.90;15.80;;;;;;;7.86;100.00;99784.98;109772;1250;58939;-69
2023/10/05 01:23:39;;;;;;;16.30;14.70;;;;;;;7.87;100.00;99781.40;109763;1249;59048;-69
2023/10/05 01:26:10;;;;;;;18.50;14.90;;;;;;;7.87;100.00;99779.27;109707;1249;58964;-69
2023/10/05 01:28:40;;;;;;;18.30;14.80;;;;;;;7.86;100.00;99776.48;109580;1249;59484;-69
2023/10/05 01:31:16;;;;;;;19.60;15.40;;;;;;;7.86;100.00;99772.60;109558;1250;65987;-69
2023/10/05 01:33:44;;;;;;;16.40;14.70;;;;;;;7.87;100.00;99769.21;109437;1250;60689;-69
2023/10/05 01:36:16;;;;;;;15.70;14.00;;;;;;;7.85;100.00;99771.95;109528;1250;64087;-69
2023/10/05 01:38:44;;;;;;;14.50;13.00;;;;;;;7.85;100.00;99771.79;109751;1249;58999;-69
2023/10/05 01:41:20;;;;;;;15.00;13.40;;;;;;;7.84;100.00;99768.98;109817;1249;58987;-69
2023/10/05 01:43:48;;;;;;;15.80;13.70;;;;;;;7.82;100.00;99764.98;109792;1250;64753;-69
2023/10/05 01:46:14;;;;;;;16.00;13.90;;;;;;;7.79;100.00;99762.98;109602;1250;60160;-69
2023/10/05 01:48:41;;;;;;;15.70;13.00;;;;;;;7.77;100.00;99755.66;109748;1250;64150;-69
2023/10/05 01:51:15;;;;;;;25.00;19.20;;;;;;;7.75;100.00;99752.39;109714;1249;59242;-69
2023/10/05 01:53:43;;;;;;;19.60;15.80;;;;;;;7.75;100.00;99755.95;109731;1249;59044;-69
2023/10/05 01:56:17;;;;;;;17.30;14.30;;;;;;;7.75;100.00;99756.82;109598;1249;66478;-69
2023/10/05 01:58:46;;;;;;;15.70;14.00;;;;;;;7.73;100.00;99752.48;109615;1250;59831;-69
2023/10/05 02:01:13;;;;;;;19.30;14.90;;;;;;;7.72;100.00;99749.69;109747;1250;65222;-69
2023/10/05 02:03:41;;;;;;;16.30;14.00;;;;;;;7.70;100.00;99746.38;109770;1249;59006;-69
2023/10/05 02:06:11;;;;;;;16.20;13.80;;;;;;;7.70;100.00;99741.80;109773;1249;59018;-69
2023/10/05 02:08:40;;;;;;;17.80;13.70;;;;;;;7.69;100.00;99742.38;109820;1249;64646;-69
2023/10/05 02:11:07;;;;;;;17.10;14.00;;;;;;;7.68;100.00;99735.54;109774;1249;60140;-69
2023/10/05 02:13:34;;;;;;;16.80;13.70;;;;;;;7.66;100.00;99736.32;109721;1249;64150;-69
2023/10/05 02:16:02;;;;;;;17.50;15.00;;;;;;;7.65;100.00;99736.04;109778;1250;59460;-69
2023/10/05 02:18:31;;;;;;;21.40;16.00;;;;;;;7.64;100.00;99736.61;109595;1249;58999;-69
2023/10/05 02:21:05;;;;;;;20.10;18.00;;;;;;;7.64;100.00;99734.98;109769;1249;64814;-69
2023/10/05 02:23:38;;;;;;;19.60;17.50;;;;;;;7.66;100.00;99736.87;109767;1250;61031;-69
2023/10/05 02:26:09;;;;;;;21.20;16.50;;;;;;;7.67;100.00;99734.13;109788;1249;62859;-69
2023/10/05 02:28:39;;;;;;;22.00;15.90;;;;;;;7.70;100.00;99738.27;109734;1249;59138;-69
2023/10/05 02:31:12;;;;;;;;;;;;;;;7.72;100.00;99739.46;109807;1249;59038;-69
2023/10/05 02:33:42;;;;;;;24.20;15.10;;;;;;;7.73;100.00;99735.87;109779;1249;67356;-69
2023/10/05 02:38:48;;;;;;;18.30;16.20;;;;;;;7.75;100.00;99737.34;109704;1250;64469;-69
2023/10/05 02:41:17;;;;;;;18.60;15.80;;;;;;;7.76;100.00;99735.38;109647;1249;59002;-69
2023/10/05 02:43:52;;;;;;;19.80;16.70;;;;;;;7.77;100.00;99739.23;109583;1249;58930;-69
2023/10/05 02:46:20;;;;;;;20.50;16.40;;;;;;;7.77;100.00;99739.04;109687;1250;64430;-69
2023/10/05 02:48:47;;;;;;;22.60;16.90;;;;;;;7.78;100.00;99737.23;109720;1250;59873;-69
2023/10/05 02:51:13;;;;;;;19.60;17.20;;;;;;;7.80;100.00;99736.64;109745;1250;65182;-69
2023/10/05 02:54:07;;;;;;;19.80;16.40;;;;;;;7.80;100.00;99730.92;109732;1249;59012;-69
2023/10/05 02:56:27;;;;;;;18.20;16.00;;;;;;;7.82;100.00;99729.62;109729;1250;61176;-69
2023/10/05 02:58:56;;;;;;;20.70;17.90;;;;;;;7.82;100.00;99725.70;109703;1250;64854;-69
2023/10/05 03:01:23;;;;;;;20.60;16.30;;;;;;;7.84;100.00;99717.83;109629;1249;60132;-69
2023/10/05 03:03:55;;;;;;;20.90;17.50;;;;;;;7.84;100.00;99721.18;109746;1249;64024;-69
2023/10/05 03:06:23;;;;;;;17.90;16.00;;;;;;;7.85;100.00;99718.88;109765;1249;59008;-69
2023/10/05 03:08:54;;;;;;;20.80;16.20;;;;;;;7.85;100.00;99714.12;109698;1250;59030;-69
2023/10/05 03:11:20;;;;;;;22.20;16.40;;;;;;;7.83;100.00;99709.39;109726;1249;65799;-69
2023/10/05 03:13:47;;;;;;;22.30;18.80;;;;;;;7.83;100.00;99707.81;109732;1249;61393;-69
2023/10/05 03:16:16;;;;;;;19.00;17.00;;;;;;;7.82;100.00;99708.21;109679;1249;71441;-69
2023/10/05 03:18:43;;;;;;;20.70;16.70;;;;;;;7.81;100.00;99716.59;109647;1249;59005;-69
2023/10/05 03:21:12;;;;;;;21.30;17.30;;;;;;;7.80;100.00;99715.92;109772;1249;59022;-69
2023/10/05 03:23:41;;;;;;;19.60;17.20;;;;;;;7.79;100.00;99716.31;109661;1249;74912;-69
2023/10/05 03:26:10;;;;;;;20.80;16.10;;;;;;;7.78;100.00;99724.69;109728;1250;60077;-69
2023/10/05 03:28:37;;;;;;;20.10;16.50;;;;;;;7.76;100.00;99733.07;109632;1249;64110;-69
2023/10/05 03:31:31;;;;;;;21.20;16.60;;;;;;;7.72;100.00;99733.58;109684;1250;59056;-69
2023/10/05 03:33:58;;;;;;;19.60;17.00;;;;;;;7.69;100.00;99733.34;109703;1250;59007;-69
2023/10/05 03:36:24;;;;;;;23.60;17.60;;;;;;;7.67;100.00;99736.64;109823;1250;67105;-69
2023/10/05 03:38:56;;;;;;;20.30;16.10;;;;;;;7.64;100.00;99733.40;109881;1249;59087;-69
2023/10/05 03:41:25;;;;;;;19.80;15.60;;;;;;;7.60;100.00;99733.77;109755;1250;64087;-69
2023/10/05 03:43:55;;;;;;;20.80;17.80;;;;;;;7.55;100.00;99738.55;109603;1250;58992;-69
2023/10/05 03:46:25;;;;;;;21.60;17.10;;;;;;;7.52;100.00;99738.50;109643;1250;59026;-69
2023/10/05 03:49:06;;;;;;;20.40;16.20;;;;;;;7.48;100.00;99731.40;109880;1250;66176;-69
2023/10/05 03:51:37;;;;;;;22.00;17.90;;;;;;;7.44;100.00;99731.60;109404;1252;60216;-69
2023/10/05 03:54:04;;;;;;;17.40;15.40;;;;;;;7.39;100.00;99734.09;109521;1252;64207;-69
2023/10/05 03:56:31;;;;;;;18.30;15.00;;;;;;;7.33;100.00;99730.98;109250;1253;59115;-69
2023/10/05 03:59:00;;;;;;;15.80;14.20;;;;;;;7.28;100.00;99726.80;109414;1252;59071;-69
2023/10/05 04:01:26;;;;;;;16.40;14.20;;;;;;;7.20;100.00;99729.26;109479;1253;72464;-69
2023/10/05 04:03:54;;;;;;;13.70;12.30;;;;;;;7.15;100.00;99724.33;109490;1253;59005;-69
2023/10/05 04:06:21;;;;;;;14.60;13.10;;;;;;;7.09;100.00;99721.03;109465;1252;62632;-69
2023/10/05 04:08:49;;;;;;;14.10;12.70;;;;;;;7.04;100.00;99719.13;109515;1253;59017;-69
2023/10/05 04:11:17;;;;;;;16.60;14.80;;;;;;;6.98;100.00;99719.36;109143;1254;59326;-69
2023/10/05 04:13:45;;;;;;;14.40;12.90;;;;;;;6.93;100.00;99718.87;109443;1253;65739;-69
2023/10/05 04:16:18;;;;;;;16.20;14.40;;;;;;;6.86;100.00;99721.96;109446;1253;60253;-69
2023/10/05 04:18:47;;;;;;;14.10;12.60;;;;;;;6.79;100.00;99720.30;109180;1252;64077;-69
2023/10/05 04:21:15;;;;;;;16.10;12.60;;;;;;;6.74;100.00;99720.14;109165;1253;59025;-69
2023/10/05 04:23:45;;;;;;;16.60;14.60;;;;;;;6.71;100.00;99715.66;109842;1249;59127;-69
2023/10/05 04:26:11;;;;;;;18.70;16.10;;;;;;;6.69;100.00;99716.83;109840;1249;66178;-69
2023/10/05 04:28:41;;;;;;;17.90;15.50;;;;;;;6.67;100.00;99713.55;109852;1250;60132;-69
2023/10/05 04:31:13;;;;;;;22.00;17.90;;;;;;;6.66;100.00;99717.30;109717;1249;64053;-69
2023/10/05 04:33:43;;;;;;;19.20;17.00;;;;;;;6.64;100.00;99718.42;109742;1249;59532;-69
2023/10/05 04:36:10;;;;;;;20.30;17.50;;;;;;;6.62;100.00;99719.56;109732;1249;59137;-69
2023/10/05 04:38:36;;;;;;;18.10;16.10;;;;;;;6.59;100.00;99718.09;109816;1249;66038;-69
2023/10/05 04:41:03;;;;;;;20.20;15.80;;;;;;;6.57;100.00;99719.59;109773;1249;59196;-69
2023/10/05 04:43:30;;;;;;;18.60;16.20;;;;;;;6.53;100.00;99719.89;109694;1249;64831;-70
2023/10/05 04:45:56;;;;;;;21.80;19.20;;;;;;;6.52;100.00;99714.84;109661;1249;59016;-69
2023/10/05 04:48:23;;;;;;;23.10;20.70;;;;;;;6.51;100.00;99717.52;109754;1249;59043;-69
2023/10/05 04:50:51;;;;;;;24.30;21.60;;;;;;;6.51;100.00;99719.13;109785;1249;64602;-69
2023/10/05 04:53:20;;;;;;;23.90;20.20;;;;;;;6.50;100.00;99720.20;109754;1249;60194;-69
2023/10/05 04:55:46;;;;;;;21.10;18.70;;;;;;;6.50;100.00;99721.27;109752;1250;64163;-69
2023/10/05 04:58:31;;;;;;;22.20;19.50;;;;;;;6.50;100.00;99717.37;109749;1249;59023;-69
2023/10/05 05:01:28;;;;;;;24.50;18.20;;;;;;;6.52;100.00;99719.58;109768;1249;59040;-70
2023/10/05 05:03:56;;;;;;;21.60;19.00;;;;;;;6.53;100.00;99712.84;109799;1249;65956;-69
2023/10/05 05:06:25;;;;;;;20.20;17.90;;;;;;;6.54;100.00;99709.80;109589;1249;59125;-70
2023/10/05 05:08:53;;;;;;;22.50;18.40;;;;;;;6.58;100.00;99707.54;109706;1249;62644;-70
2023/10/05 05:11:20;;;;;;;22.40;20.00;;;;;;;6.61;100.00;99707.24;109726;1249;58996;-70
2023/10/05 05:13:48;;;;;;;21.80;19.40;;;;;;;6.63;100.00;99697.47;109785;1249;59010;-70
2023/10/05 05:16:18;;;;;;;22.70;19.00;;;;;;;6.65;100.00;99697.55;109765;1250;66195;-70
2023/10/05 05:18:45;;;;;;;18.70;16.70;;;;;;;6.68;100.00;99693.19;109758;1249;58972;-70
2023/10/05 05:21:12;;;;;;;17.40;14.20;;;;;;;6.73;100.00;99696.34;109526;1250;63655;-70
2023/10/05 05:23:42;;;;;;;14.70;13.20;;;;;;;6.80;100.00;99697.67;109751;1249;59019;-70
2023/10/05 05:26:10;;;;;;;15.90;14.20;;;;;;;6.87;100.00;99699.31;109736;1249;59052;-69
2023/10/05 05:28:37;;;;;;;21.70;18.00;;;;;;;6.95;100.00;99703.76;109733;1249;65764;-69
2023/10/05 05:31:11;;;;;;;18.90;16.70;;;;;;;7.05;100.00;99704.95;109570;1250;58978;-69
2023/10/05 05:33:38;;;;;;;21.80;17.80;;;;;;;7.16;100.00;99702.01;109661;1250;65300;-69
2023/10/05 05:36:10;;;;;;;21.30;18.40;;;;;;;7.27;100.00;99701.94;109702;1249;59033;-69
2023/10/05 05:38:41;;;;;;;21.20;18.20;;;;;;;7.39;100.00;99702.48;109688;1250;59012;-68
2023/10/05 05:41:12;;;;;;;22.50;18.60;;;;;;;7.50;100.00;99699.52;109777;1249;67245;-69
2023/10/05 05:43:41;;;;;;;20.10;17.40;;;;;;;7.62;100.00;99691.92;109735;1250;59275;-69
2023/10/05 05:46:14;;;;;;;23.60;19.50;;;;;;;7.77;100.00;99688.43;109724;1249;63860;-69
2023/10/05 05:48:48;;;;;;;21.50;17.50;;;;;;;7.95;100.00;99684.14;109673;1249;58976;-69
2023/10/05 05:51:15;;;;;;;18.20;16.40;;;;;;;8.16;100.00;99683.50;109798;1249;59018;-70
2023/10/05 05:53:43;;;;;;;20.20;16.30;;;;;;;8.36;100.00;99683.11;109752;1249;65717;-70
2023/10/05 05:56:16;;;;;;;17.40;15.40;;;;;;;8.57;100.00;99682.16;109688;1249;58937;-69
2023/10/05 05:58:47;;;;;;;16.20;13.10;;;;;;;8.80;100.00;99676.41;109727;1249;65216;-69
2023/10/05 06:01:17;;;;;;;18.80;12.90;;;;;;;9.04;100.00;99672.58;109649;1249;59133;-70
2023/10/05 06:03:49;;;;;;;13.90;11.60;;;;;;;9.28;100.00;99671.23;109773;1249;59196;-69
2023/10/05 06:06:16;;;;;;;13.90;11.20;;;;;;;9.49;100.00;99672.63;109509;1250;65697;-75
2023/10/05 06:08:43;;;;;;;12.70;10.90;;;;;;;9.70;100.00;99676.34;109665;1250;59457;-76
2023/10/05 06:11:10;;;;;;;16.70;11.20;;;;;;;9.88;100.00;99679.31;109677;1249;63984;-75
2023/10/05 06:13:40;;;;;;;14.20;10.80;;;;;;;10.03;100.00;99683.81;109667;1250;59034;-75
2023/10/05 06:16:10;;;;;;;15.50;11.30;;;;;;;10.16;100.00;99683.48;109711;1249;58857;-75
2023/10/05 06:18:37;;;;;;;13.50;10.40;;;;;;;10.27;100.00;99679.70;109701;1250;66061;-73
2023/10/05 06:21:07;;;;;;;15.10;11.70;;;;;;;10.37;100.00;99677.23;109579;1249;60045;-74
2023/10/05 06:23:34;;;;;;;16.80;10.10;;;;;;;10.47;100.00;99674.88;109643;1249;71500;-76
2023/10/05 06:26:01;;;;;;;14.10;10.30;;;;;;;10.56;100.00;99675.25;109699;1249;58945;-80
2023/10/05 06:28:32;;;;;;;13.00;9.50;;;;;;;10.64;100.00;99670.02;109683;1249;59352;-74
2023/10/05 06:30:59;;;;;;;15.00;9.40;;;;;;;10.73;100.00;99666.44;109690;1249;64530;-74
2023/10/05 06:33:25;;;;;;;14.10;9.50;;;;;;;10.85;100.00;99664.36;109698;1249;59340;-73
2023/10/05 06:35:52;;;;;;;12.70;8.70;;;;;;;10.98;100.00;99659.02;109698;1249;64846;-73
2023/10/05 06:38:18;;;;;;;13.10;8.20;;;;;;;11.12;100.00;99653.89;109672;1249;58956;-72
2023/10/05 06:40:48;;;;;;;14.50;9.40;;;;;;;11.29;100.00;99653.27;109690;1249;58952;-75
2023/10/05 06:43:15;;;;;;;12.30;8.90;;;;;;;11.47;100.00;99651.13;108889;1249;1034532;-75
2023/10/05 06:45:45;;;;;;;15.30;9.60;;;;;;;11.66;100.00;99652.30;109695;1249;59798;-71
2023/10/05 06:48:14;;;;;;;;;;;;;;;11.87;100.00;99653.85;109754;1249;64057;-72
2023/10/05 06:50:41;;;;;;;14.90;8.90;;;;;;;12.09;100.00;99659.15;109716;1249;58949;-73
2023/10/05 06:53:07;;;;;;;14.50;9.70;;;;;;;12.33;100.00;99660.25;109785;1249;58989;-72
2023/10/05 06:55:34;;;;;;;14.70;8.80;;;;;;;12.58;100.00;99662.77;109588;1251;65748;-72
2023/10/05 06:58:03;;;;;;;12.40;8.90;;;;;;;12.81;100.00;99659.35;109755;1249;59020;-73
2023/10/05 07:00:31;;;;;;;12.90;9.00;;;;;;;13.02;100.00;99661.19;109715;1249;62725;-73
2023/10/05 07:02:58;;;;;;;11.00;7.50;;;;;;;13.19;100.00;99663.94;109690;1249;58914;-73
2023/10/05 07:05:29;;;;;;;9.70;7.50;;;;;;;13.30;100.00;99666.45;109699;1249;58958;-73
2023/10/05 07:07:55;;;;;;;9.70;6.50;;;;;;;13.41;100.00;99665.85;109755;1249;64918;-72
2023/10/05 07:10:22;;;;;;;6.90;5.80;;;;;;;13.52;100.00;99664.10;109754;1250;60957;-73
2023/10/05 07:12:49;;;;;;;11.50;5.90;;;;;;;13.67;100.00;99669.64;109774;1249;64068;-73
2023/10/05 07:15:21;;;;;;;8.70;5.10;;;;;;;13.82;100.00;99666.44;109730;1250;58977;-73
2023/10/05 07:17:48;;;;;;;9.20;5.60;;;;;;;13.94;100.00;99668.48;109590;1249;59063;-73
2023/10/05 07:20:16;;;;;;;10.90;5.80;;;;;;;14.13;100.00;99671.45;109741;1250;66103;-73
2023/10/05 07:22:45;;;;;;;5.50;4.10;;;;;;;14.34;100.00;99667.77;109710;1249;59147;-73
2023/10/05 07:25:19;;;;;;;10.10;4.80;;;;;;;14.52;100.00;99668.82;109738;1249;62741;-73
2023/10/05 07:27:47;;;;;;;8.50;4.70;;;;;;;14.70;100.00;99668.44;109746;1249;59106;-73
2023/10/05 07:30:14;;;;;;;6.60;4.50;;;;;;;14.76;100.00;99669.63;109739;1249;59310;-73
2023/10/05 07:32:41;;;;;;;7.80;4.30;;;;;;;14.80;100.00;99669.66;109776;1249;66299;-73
2023/10/05 07:35:09;;;;;;;8.50;4.40;;;;;;;14.83;100.00;99669.29;109780;1249;69022;-73
2023/10/05 07:37:36;;;;;;;7.60;4.60;;;;;;;14.84;100.00;99670.45;109720;1250;62859;-73
2023/10/05 07:40:13;;;;;;;5.70;4.20;;;;;;;14.87;100.00;99673.63;109713;1249;59782;-73
2023/10/05 07:42:40;;;;;;;8.30;4.30;;;;;;;14.90;100.00;99669.13;109748;1249;59642;-73
2023/10/05 07:45:07;;;;;;;6.10;4.10;;;;;;;14.91;100.00;99667.25;109759;1249;64484;-73
2023/10/05 07:47:52;;;;;;;6.10;4.40;;;;;;;14.91;100.00;99667.79;109698;1250;59037;-73
2023/10/05 07:50:19;;;;;;;9.60;4.30;;;;;;;14.89;100.00;99667.21;109723;1249;62830;-73
2023/10/05 07:52:48;;;;;;;7.60;3.80;;;;;;;14.94;100.00;99670.23;109657;1250;58988;-73
2023/10/05 07:55:14;;;;;;;9.00;4.10;;;;;;;15.01;100.00;99669.70;109687;1250;58899;-72
2023/10/05 07:57:42;;;;;;;6.60;4.30;;;;;;;15.04;100.00;99671.61;109683;1249;65159;-72
2023/10/05 08:00:12;;;;;;;7.20;4.00;;;;;;;15.06;100.00;99670.94;109740;1249;59841;-73
2023/10/05 08:02:39;;;;;;;8.00;4.40;;;;;;;15.15;100.00;99668.66;109703;1249;63745;-73
2023/10/05 08:05:07;;;;;;;7.40;3.40;;;;;;;15.19;100.00;99667.12;109699;1249;59050;-72
2023/10/05 08:07:33;;;;;;;6.00;3.70;;;;;;;15.23;100.00;99667.03;109735;1249;58950;-73
2023/10/05 08:10:00;;;;;;;5.10;3.50;;;;;;;15.26;100.00;99660.69;109731;1249;65771;-73
2023/10/05 08:12:27;;;;;;;11.30;3.20;;;;;;;15.29;100.00;99659.02;109671;1249;69691;-73
2023/10/05 08:14:56;;;;;;;6.40;3.00;;;;;;;15.32;100.00;99656.51;109748;1249;62908;-72
2023/10/05 08:17:23;;;;;;;6.30;2.60;;;;;;;15.37;100.00;99661.45;109686;1249;59003;-73
2023/10/05 08:19:50;;;;;;;8.40;2.90;;;;;;;15.45;100.00;99662.46;109705;1249;58956;-73
2023/10/05 08:22:16;;;;;;;5.80;2.60;;;;;;;15.56;100.00;99662.11;109758;1249;74511;-73
2023/10/05 08:24:43;;;;;;;3.50;2.10;;;;;;;15.67;100.00;99659.19;109429;1253;59027;-73
2023/10/05 08:27:14;;;;;;;3.10;2.20;;;;;;;15.79;100.00;99659.86;109518;1253;58953;-74
2023/10/05 08:29:42;;;;;;;5.50;2.40;;;;;;;15.91;100.00;99657.81;109507;1254;59529;-73
2023/10/05 08:32:13;;;;;;;5.80;2.20;;;;;;;16.02;100.00;99658.79;109439;1253;59272;-73
2023/10/05 08:34:41;;;;;;;4.40;2.10;;;;;;;16.09;100.00;99657.93;109559;1253;65747;-73
2023/10/05 08:37:08;;;;;;;4.70;2.10;;;;;;;16.17;100.00;99653.84;109503;1254;59252;-73
2023/10/05 08:39:37;;;;;;;5.40;2.10;;;;;;;16.30;100.00;99651.40;109496;1253;62872;-73
2023/10/05 08:42:07;;;;;;;3.70;1.90;;;;;;;16.39;100.00;99650.27;109506;1254;58967;-73
2023/10/05 08:44:38;;;;;;;3.90;1.80;;;;;;;16.46;100.00;99648.23;109500;1253;58984;-72
2023/10/05 08:47:10;;;;;;;2.10;1.60;;;;;;;16.52;100.00;99646.60;109071;1253;66094;-72
2023/10/05 08:49:37;;;;;;;3.20;2.00;;;;;;;16.55;100.00;99644.66;109424;1253;59052;-73
2023/10/05 08:52:13;;;;;;;4.40;2.00;;;;;;;16.62;100.00;99643.73;109495;1253;64071;-73
2023/10/05 08:54:40;;;;;;;2.20;1.60;;;;;;;16.69;100.00;99646.44;109477;1252;59090;-73
2023/10/05 08:57:10;;;;;;;2.70;1.60;;;;;;;16.69;100.00;99641.94;109678;1250;58934;-73
2023/10/05 08:59:39;;;;;;;5.00;1.80;;;;;;;16.68;100.00;99642.90;109712;1249;64994;-73
2023/10/05 09:02:08;;;;;;;3.60;1.80;;;;;;;16.70;100.00;99643.98;109746;1249;58990;-73
2023/10/05 09:04:44;;;;;;;3.60;1.80;;;;;;;16.75;100.00;99639.09;109757;1249;62572;-73
2023/10/05 09:07:27;;;;;;;3.10;1.80;;;;;;;16.85;100.00;99637.38;109719;1249;59408;-73
2023/10/05 09:09:54;;;;;;;3.90;1.70;;;;;;;16.88;100.00;99637.15;109745;1249;59664;-73
2023/10/05 09:12:34;;;;;;;5.30;1.90;;;;;;;16.88;100.00;99642.90;109760;1249;65748;-73
2023/10/05 09:15:18;;;;;;;4.30;1.80;;;;;;;16.86;100.00;99645.40;109744;1249;60151;-73
2023/10/05 09:17:57;;;;;;;3.30;2.00;;;;;;;16.84;100.00;99643.56;109732;1250;64163;-73
2023/10/05 09:20:30;;;;;;;3.50;2.00;;;;;;;16.88;100.00;99640.57;109701;1250;59037;-73
2023/10/05 09:23:05;;;;;;;3.60;2.00;;;;;;;16.92;100.00;99636.27;109687;1249;58975;-73
2023/10/05 09:25:47;;;;;;;3.30;1.90;;;;;;;16.98;100.00;99635.64;109726;1249;65721;-73
2023/10/05 09:28:44;;;;;;;4.60;2.20;;;;;;;17.06;100.00;99634.59;109755;1249;70058;-73
2023/10/05 09:31:11;;;;;;;3.40;1.90;;;;;;;17.13;100.00;99632.55;109706;1250;62919;-73
2023/10/05 09:33:53;;;;;;;4.20;1.90;;;;;;;17.19;100.00;99631.15;109534;1250;59069;-73
2023/10/05 09:36:19;;;;;;;3.60;2.10;;;;;;;17.28;100.00;99628.40;109701;1253;58864;-73
2023/10/05 09:38:47;;;;;;;3.80;2.20;;;;;;;17.35;100.00;99624.08;109613;1250;65710;-72
2023/10/05 09:41:17;;;;;;;4.90;2.40;;;;;;;17.35;100.00;99631.79;109712;1250;59906;-73
2023/10/05 09:43:47;;;;;;;6.40;2.60;;;;;;;17.21;100.00;99627.96;109727;1249;62844;-72
2023/10/05 09:46:16;;;;;;;2.60;2.10;;;;;;;17.18;100.00;99623.91;109708;1250;58964;-73
2023/10/05 09:48:44;;;;;;;3.60;2.20;;;;;;;17.24;100.00;99622.10;109692;1249;58928;-73
2023/10/05 09:51:13;;;;;;;3.30;1.90;;;;;;;17.35;100.00;99618.34;109698;1249;64479;-73
2023/10/05 09:53:44;;;;;;;4.30;2.10;;;;;;;17.44;100.00;99615.61;109715;1249;60170;-72
2023/10/05 09:56:14;;;;;;;4.00;2.00;;;;;;;17.49;100.00;99618.17;109674;1249;63758;-72
2023/10/05 09:58:41;;;;;;;4.00;2.10;;;;;;;17.60;100.00;99617.21;109740;1249;59260;-73
2023/10/05 10:01:11;;;;;;;9.30;2.10;;;;;;;17.70;100.00;99619.27;109763;1249;58915;-73
2023/10/05 10:03:45;;;;;;;3.30;2.20;;;;;;;17.78;100.00;99617.14;109687;1249;64831;-72
2023/10/05 10:06:17;;;;;;;5.60;2.50;;;;;;;17.83;100.00;99614.97;109748;1250;59415;-73
2023/10/05 10:08:54;;;;;;;4.80;2.50;;;;;;;17.90;100.00;99609.11;109717;1249;63860;-73
2023/10/05 10:11:27;;;;;;;5.80;2.00;;;;;;;17.98;100.00;99605.69;109675;1249;59020;-72
2023/10/05 10:14:00;;;;;;;2.20;1.70;;;;;;;18.03;100.00;99606.73;109596;1250;60002;-73
2023/10/05 10:16:31;;;;;;;3.30;2.20;;;;;;;18.06;100.00;99601.94;109721;1249;66139;-73
2023/10/05 10:19:19;;;;;;;3.00;2.10;;;;;;;18.11;100.00;99604.89;109728;1250;58960;-73
2023/10/05 10:21:49;;;;;;;3.90;2.20;;;;;;;18.20;100.00;99597.27;109735;1249;64220;-73
2023/10/05 10:24:18;;;;;;;3.60;2.80;;;;;;;18.33;100.00;99592.23;109752;1249;58970;-72
2023/10/05 10:27:07;;;;;;;4.10;2.70;;;;;;;18.36;100.00;99589.39;109707;1251;58987;-73
2023/10/05 10:29:55;;;;;;;3.80;2.20;;;;;;;18.39;100.00;99584.46;109721;1249;67164;-73
2023/10/05 10:32:30;;;;;;;3.00;1.60;;;;;;;18.48;100.00;99576.02;109739;1250;59921;-73
2023/10/05 10:35:10;;;;;;;3.00;1.90;;;;;;;18.58;100.00;99573.00;109538;1250;62568;-73
2023/10/05 10:37:43;;;;;;;3.90;2.20;;;;;;;18.69;100.00;99565.39;109785;1249;59012;-72
2023/10/05 10:45:43;;;;;;;3.70;1.90;;;;;;;19.09;100.00;99560.66;109769;1250;59915;-72
2023/10/05 10:50:45;;;;;;;3.00;2.30;;;;;;;19.20;100.00;99544.63;109750;1253;59060;-73
2023/10/05 10:53:16;;;;;;;4.50;2.60;;;;;;;19.13;100.00;99547.64;109586;1250;59106;-74
2023/10/05 10:55:48;;;;;;;2.10;1.70;;;;;;;19.02;100.00;99548.77;109711;1250;67205;-72
2023/10/05 10:58:16;;;;;;;3.50;2.90;;;;;;;18.96;100.00;99555.38;109720;1253;59969;-72
2023/10/05 11:00:57;;;;;;;4.50;2.40;;;;;;;18.92;100.00;99552.98;109720;1249;64099;-73
2023/10/05 11:03:26;;;;;;;3.60;2.60;;;;;;;18.96;100.00;99546.67;109678;1250;58986;-74
2023/10/05 11:05:57;;;;;;;5.50;3.00;;;;;;;19.03;100.00;99539.22;109740;1249;59142;-73
2023/10/05 11:08:30;;;;;;;4.60;3.20;;;;;;;19.14;100.00;99537.96;109699;1250;66047;-73
2023/10/05 11:11:09;;;;;;;3.80;2.40;;;;;;;19.24;100.00;99536.10;109777;1249;60702;-74
2023/10/05 11:13:43;;;;;;;2.70;1.60;;;;;;;19.34;100.00;99536.63;109712;1249;63846;-73
2023/10/05 11:16:09;;;;;;;2.90;1.90;;;;;;;19.42;100.00;99536.29;109729;1249;59080;-74
2023/10/05 11:18:58;;;;;;;5.50;1.70;;;;;;;19.34;100.00;99528.89;109800;1249;59003;-74
2023/10/05 11:21:26;;;;;;;3.70;2.20;;;;;;;19.28;100.00;99528.36;109572;1250;66246;-73
2023/10/05 11:23:57;;;;;;;3.30;1.70;;;;;;;19.24;100.00;99526.91;109779;1249;59371;-73
2023/10/05 11:26:56;;;;;;;5.60;2.10;;;;;;;19.18;100.00;99520.72;109718;1249;63773;-73
2023/10/05 11:29:33;;;;;;;3.80;2.00;;;;;;;19.14;100.00;99516.52;109686;1249;59122;-74
2023/10/05 11:32:09;;;;;;;2.20;2.00;;;;;;;19.18;100.00;99517.02;109769;1249;59222;-74
2023/10/05 11:34:39;;;;;;;6.20;2.20;;;;;;;19.31;100.00;99518.70;109767;1249;66011;-74
2023/10/05 11:37:15;;;;;;;4.70;2.00;;;;;;;19.46;100.00;99515.45;109787;1249;61358;-74
2023/10/05 11:39:49;;;;;;;4.30;1.80;;;;;;;19.60;100.00;99503.51;109741;1250;62676;-75
2023/10/05 11:42:24;;;;;;;2.10;1.60;;;;;;;19.70;100.00;99494.30;109749;1249;58985;-74